Portada
METAR-TAF:

METAR-TAF

Aeropuertos :

Constanza, Rumania

latitud: 44-20N, longitud: 028-26E, altitud: 97 m

Observación

El informe se hizo hace 20 minutos, a las 00:30 UTC
Viento 7 kt del oeste-suroeste
Temperatura -1°C
Humedad 93%
Presión 1028 hPa
Visibilidad 10 km o más
sin nubes por debajo de 1500 m y sin presencia de cumulonimbus.

METAR: LRCK 060030Z 24007KT CAVOK M01/M02 Q1028 NOSIG

Hora: 02:50 (00:50 UTC)

Pronóstico

El informe se hizo hace 1 hora y 50 minutos, a las 23:00 UTC
Pronóstico válido del 06 a las 00 UTC al 06 a las 24 UTC
Viento 6 kt del suroeste
Visibilidad 10 km o más
sin nubes por debajo de 1500 m y sin presencia de cumulonimbus.

TAF: LRCK 052300Z 0600/0624 22006KT CAVOK

Observaciones y pronósticos meteorológicos de más de 4000 aeropuertos (mensajes METAR y TAF).

Los puntos amarillos y rojos representan las estaciones disponibles.

Ponga el ratón en el punto deseado para ver el nombre de la estación.

Haga clic para ver las observaciones y los pronósticos meteorológicos.

Para cambiar el mapa : haga clic en los botones verdes con una cruz de color negro para hacer un zoom, en el botón verde con un guión para alejar o en las flechas verdes para mapas adyacentes.


METAR-TAF: